Thursday, July 19, 2018, 1:37 AM EDT
Back to Local

KMSS, Massena International -richards Fld

Location: Massena, NY, United States Lat: 44.933
Local Time: 1:37 AM EDT ( 5:37 GMT) Lon: -74.85
Time Zone: US/Eastern Elev: 213 ft

Show me the last for .
Show Coded

Time T Td Feel RH Dir Speed Gust Alt SLP Vis Weather Sky Remarks
2018-07-19 00:53 52 51 - 96 - Calm - 30.05 30.05 10 CLR 24-hr Min Temp (1am): 52.0°F
24-hr Max Temp (1am): 75.9°F
2018-07-18 23:53 53 52 - 96 - Calm - 30.04 30.04 10 CLR None
2018-07-18 22:53 56 53 - 90 - Calm - 30.04 30.04 10 CLR None
2018-07-18 21:53 58 54 - 86 - Calm - 30.03 30.03 10 CLR None
2018-07-18 20:53 61 54 - 77 - Calm - 30.01 30.01 10 CLR None
2018-07-18 19:53 72 48 76 42 340° 6 - 30.01 30.01 10 CLR 6-hr Min Temp (8pm): 72.0°F
6-hr Max Temp (8pm): 75.9°F
2018-07-18 18:53 74 47 - 38 340° 8 - 30.00 30.00 10 CLR None
2018-07-18 17:53 75 45 - 34 280° 8 - 30.00 29.99 10 CLR None
2018-07-18 16:53 76 47 - 35 350° 8 - 30.00 30.00 10 CLR None
2018-07-18 15:53 75 47 - 36 310° 10 - 30.01 30.01 10 CLR None
2018-07-18 14:53 74 46 - 37 Variable 6 - 30.01 30.01 10 CLR None
2018-07-18 13:53 73 46 - 38 300° 9 18 30.02 30.02 10 CLR 6-hr Min Temp (2pm): 62.1°F
6-hr Max Temp (2pm): 73.0°F
2018-07-18 12:53 72 45 - 38 Variable 7 - 30.03 30.03 10 CLR None
2018-07-18 11:53 70 43 - 37 Variable 7 - 30.04 30.04 10 CLR None
2018-07-18 10:53 67 44 - 43 300° 8 - 30.05 30.04 10 CLR None
2018-07-18 09:53 66 48 - 52 290° 8 - 30.05 30.04 10 CLR None
2018-07-18 08:53 64 47 - 53 350° 10 - 30.04 30.03 10 CLR None
2018-07-18 07:53 62 48 - 60 330° 12 - 30.04 30.03 10 CLR 6-hr Min Temp (8am): 59.0°F
6-hr Max Temp (8am): 64.0°F
2018-07-18 06:53 61 49 - 64 330° 8 - 30.02 30.01 10 CLR None
2018-07-18 05:53 59 49 - 69 330° 6 - 30.00 29.99 10 CLR None
2018-07-18 04:53 60 51 - 72 330° 8 - 29.98 29.97 10 CLR None
2018-07-18 03:53 60 53 - 77 340° 7 - 29.97 29.96 10 CLR None
2018-07-18 02:53 62 53 - 72 20° 3 - 29.95 29.95 10 CLR None
2018-07-18 01:53 64 55 - 72 350° 7 - 29.93 29.92 10 CLR 6-hr Min Temp (2am): 64.0°F
6-hr Max Temp (2am): 77.0°F

Support USWX by starting your Amazon purchase here.